createdAt,value
2022-09-18T00:00:16.929Z,7.77
2022-09-18T00:03:19.767Z,7.78
2022-09-18T00:06:24.850Z,7.71
2022-09-18T00:09:28.876Z,7.70
2022-09-18T00:12:31.673Z,7.71
2022-09-18T00:15:34.423Z,7.69
2022-09-18T00:18:37.242Z,7.63
2022-09-18T00:21:42.291Z,7.64
2022-09-18T00:24:46.352Z,7.65
2022-09-18T00:27:49.645Z,7.63
2022-09-18T00:30:53.763Z,7.61
2022-09-18T00:33:56.865Z,7.61
2022-09-18T00:36:59.618Z,7.65
2022-09-18T00:40:04.430Z,7.66
2022-09-18T00:43:21.132Z,7.64
2022-09-18T00:46:28.011Z,7.63
2022-09-18T00:49:31.237Z,7.62
2022-09-18T00:52:45.828Z,7.58
2022-09-18T00:55:49.912Z,7.62
2022-09-18T00:58:52.726Z,7.60
2022-09-18T01:01:57.089Z,7.60
2022-09-18T01:04:59.917Z,7.60
2022-09-18T01:08:20.599Z,7.59
2022-09-18T01:11:37.420Z,7.60
2022-09-18T01:14:48.524Z,7.59
2022-09-18T01:18:01.425Z,7.55
2022-09-18T01:21:28.229Z,7.57
2022-09-18T01:24:46.905Z,7.57
2022-09-18T01:28:15.467Z,7.57
2022-09-18T01:31:22.612Z,7.54
2022-09-18T01:34:31.293Z,7.55
2022-09-18T01:37:38.943Z,7.53
2022-09-18T01:40:47.973Z,7.55
2022-09-18T01:43:57.019Z,7.55
2022-09-18T01:47:03.966Z,7.54
2022-09-18T01:50:12.281Z,7.57
2022-09-18T01:53:20.332Z,7.53
2022-09-18T01:56:28.546Z,7.55
2022-09-18T01:59:37.521Z,7.55
2022-09-18T02:02:51.957Z,7.57
2022-09-18T02:06:03.058Z,7.58
2022-09-18T02:09:09.038Z,7.57
2022-09-18T02:12:17.492Z,7.61
2022-09-18T02:15:25.210Z,7.61
2022-09-18T02:18:34.961Z,7.59
2022-09-18T02:21:43.885Z,7.60
2022-09-18T02:24:50.274Z,7.58
2022-09-18T02:27:55.754Z,7.57
2022-09-18T02:31:00.273Z,7.58
2022-09-18T02:34:03.098Z,7.57
2022-09-18T02:37:24.096Z,7.57
2022-09-18T02:40:43.487Z,7.55
2022-09-18T02:43:56.018Z,7.58
2022-09-18T02:47:12.454Z,7.55
2022-09-18T02:50:19.314Z,7.55
2022-09-18T02:53:28.438Z,7.54
2022-09-18T02:56:39.386Z,7.55
2022-09-18T02:59:46.328Z,7.58
2022-09-18T03:02:52.814Z,7.58
2022-09-18T03:06:07.648Z,7.58
2022-09-18T03:09:12.061Z,7.57
2022-09-18T03:12:16.178Z,7.57
2022-09-18T03:15:23.704Z,7.57
2022-09-18T03:18:28.777Z,7.61
2022-09-18T03:21:32.896Z,7.61
2022-09-18T03:24:35.665Z,7.63
2022-09-18T03:27:39.586Z,7.59
2022-09-18T03:30:42.763Z,7.57
2022-09-18T03:33:46.858Z,7.61
2022-09-18T03:36:49.792Z,7.66
2022-09-18T03:39:53.839Z,7.67
2022-09-18T03:42:56.677Z,7.68
2022-09-18T03:46:01.052Z,7.64
2022-09-18T03:49:05.415Z,7.66
2022-09-18T03:52:10.596Z,7.68
2022-09-18T03:55:20.308Z,7.66
2022-09-18T03:58:41.877Z,7.68
2022-09-18T04:01:44.632Z,7.66
2022-09-18T04:05:09.596Z,7.68
2022-09-18T04:08:36.529Z,7.65
2022-09-18T04:11:50.490Z,7.67
2022-09-18T04:14:56.691Z,7.63
2022-09-18T04:17:59.772Z,7.62
2022-09-18T04:21:04.020Z,7.61
2022-09-18T04:24:07.298Z,7.62
2022-09-18T04:27:10.099Z,7.57
2022-09-18T04:30:15.183Z,7.55
2022-09-18T04:33:20.329Z,7.57
2022-09-18T04:36:25.538Z,7.58
2022-09-18T04:39:28.477Z,7.52
2022-09-18T04:42:35.494Z,7.55
2022-09-18T04:45:38.323Z,7.51
2022-09-18T04:48:41.409Z,7.53
2022-09-18T04:51:46.080Z,7.49
2022-09-18T04:54:51.540Z,7.51
2022-09-18T04:57:54.751Z,7.54
2022-09-18T05:00:58.980Z,7.54
2022-09-18T05:04:02.108Z,7.55
2022-09-18T05:07:17.679Z,7.58
2022-09-18T05:10:21.522Z,7.60
2022-09-18T05:13:24.512Z,7.64
2022-09-18T05:16:35.393Z,7.62
2022-09-18T05:20:02.920Z,7.60
2022-09-18T05:23:14.858Z,7.63
2022-09-18T05:26:17.711Z,7.65
2022-09-18T05:29:20.446Z,7.65
2022-09-18T05:32:24.534Z,7.70
2022-09-18T05:35:29.246Z,7.71
2022-09-18T05:38:33.415Z,7.68
2022-09-18T05:41:36.440Z,7.68
2022-09-18T05:44:39.895Z,7.63
2022-09-18T05:47:58.304Z,7.61
2022-09-18T05:51:01.387Z,7.63
2022-09-18T05:54:06.442Z,7.63
2022-09-18T05:57:18.808Z,7.65
2022-09-18T06:00:25.166Z,7.70
2022-09-18T06:03:36.122Z,7.74
2022-09-18T06:06:38.918Z,7.81
2022-09-18T06:09:43.059Z,7.81
2022-09-18T06:12:46.030Z,7.82
2022-09-18T06:15:52.323Z,7.90
2022-09-18T06:19:04.754Z,7.93
2022-09-18T06:22:07.721Z,7.93
2022-09-18T06:25:12.789Z,7.90
2022-09-18T06:28:15.583Z,7.90
2022-09-18T06:31:18.459Z,7.91
2022-09-18T06:34:47.209Z,7.98
2022-09-18T06:37:51.165Z,8.04
2022-09-18T06:41:04.140Z,8.13
2022-09-18T06:44:19.120Z,8.13
2022-09-18T06:47:25.365Z,8.11
2022-09-18T06:50:28.175Z,8.09
2022-09-18T06:53:31.550Z,8.20
2022-09-18T06:56:39.588Z,8.26
2022-09-18T06:59:45.498Z,8.34
2022-09-18T07:02:54.721Z,8.38
2022-09-18T07:06:15.872Z,8.38
2022-09-18T07:09:22.127Z,8.39
2022-09-18T07:12:38.899Z,8.35
2022-09-18T07:15:43.304Z,8.39
2022-09-18T07:18:48.897Z,8.43
2022-09-18T07:21:55.212Z,8.42
2022-09-18T07:24:58.036Z,8.48
2022-09-18T07:28:07.765Z,8.50
2022-09-18T07:31:15.490Z,8.54
2022-09-18T07:34:19.654Z,8.55
2022-09-18T07:37:22.843Z,8.67
2022-09-18T07:40:35.214Z,8.75
2022-09-18T07:43:46.282Z,8.92
2022-09-18T07:46:51.155Z,8.97
2022-09-18T07:49:54.812Z,9.01
2022-09-18T07:52:59.605Z,9.05
2022-09-18T07:56:09.075Z,9.10
2022-09-18T07:59:13.325Z,9.07
2022-09-18T08:02:16.611Z,9.10
2022-09-18T08:05:19.456Z,9.15
2022-09-18T08:08:35.553Z,9.29
2022-09-18T08:11:54.188Z,9.20
2022-09-18T08:15:18.595Z,9.43
2022-09-18T08:18:34.370Z,9.53
2022-09-18T08:21:55.462Z,9.67
2022-09-18T08:24:58.626Z,9.85
2022-09-18T08:28:02.135Z,10.03
2022-09-18T08:31:23.936Z,10.17
2022-09-18T08:34:31.202Z,10.15
2022-09-18T08:37:34.564Z,10.30
2022-09-18T08:41:07.924Z,10.33
2022-09-18T08:44:13.755Z,10.20
2022-09-18T08:47:25.566Z,10.22
2022-09-18T08:50:36.258Z,10.25
2022-09-18T08:53:44.378Z,10.26
2022-09-18T08:57:15.621Z,10.23
2022-09-18T09:00:53.721Z,10.39
2022-09-18T09:04:19.254Z,10.36
2022-09-18T09:07:40.341Z,10.32
2022-09-18T09:10:49.026Z,10.42
2022-09-18T09:14:08.469Z,10.61
2022-09-18T09:17:18.811Z,10.74
2022-09-18T09:20:26.166Z,10.74
2022-09-18T09:23:48.255Z,10.71
2022-09-18T09:27:25.347Z,10.45
2022-09-18T09:30:37.581Z,10.22
2022-09-18T09:33:54.681Z,9.77
2022-09-18T09:37:27.313Z,9.56
2022-09-18T09:40:40.613Z,9.50
2022-09-18T09:43:48.772Z,9.72
2022-09-18T09:47:06.838Z,9.92
2022-09-18T09:50:32.789Z,10.15
2022-09-18T09:53:37.830Z,10.44
2022-09-18T09:56:48.734Z,10.55
2022-09-18T10:00:02.740Z,10.60
2022-09-18T10:03:39.525Z,10.68
2022-09-18T10:06:52.503Z,10.65
2022-09-18T10:10:02.329Z,10.68
2022-09-18T10:13:15.621Z,10.80
2022-09-18T10:16:23.293Z,10.83
2022-09-18T10:19:34.556Z,10.85
2022-09-18T10:22:38.172Z,10.93
2022-09-18T10:25:47.713Z,10.92
2022-09-18T10:28:52.416Z,11.09
2022-09-18T10:31:59.885Z,11.17
2022-09-18T10:35:42.659Z,11.09
2022-09-18T10:38:47.210Z,11.08
2022-09-18T10:42:02.657Z,11.11
2022-09-18T10:45:08.499Z,11.13
2022-09-18T10:48:17.376Z,11.12
2022-09-18T10:51:25.738Z,11.19
2022-09-18T10:54:32.095Z,11.30
2022-09-18T10:57:45.254Z,11.26
2022-09-18T11:00:56.465Z,10.82
2022-09-18T11:04:02.541Z,10.77
2022-09-18T11:07:12.374Z,10.79
2022-09-18T11:10:18.255Z,10.75
2022-09-18T11:13:25.512Z,10.56
2022-09-18T11:16:30.859Z,10.52
2022-09-18T11:19:38.152Z,10.61
2022-09-18T11:22:53.537Z,10.68
2022-09-18T11:26:19.279Z,10.76
2022-09-18T11:29:31.725Z,10.91
2022-09-18T11:32:36.051Z,10.92
2022-09-18T11:35:46.716Z,10.94
2022-09-18T11:38:50.516Z,10.91
2022-09-18T11:41:55.274Z,10.87
2022-09-18T11:45:18.935Z,10.92
2022-09-18T11:48:30.343Z,10.92
2022-09-18T11:51:41.703Z,10.90
2022-09-18T11:54:51.593Z,10.84
2022-09-18T11:57:58.966Z,10.84
2022-09-18T12:01:15.371Z,10.87
2022-09-18T12:04:24.649Z,10.88
2022-09-18T12:07:40.835Z,10.98
2022-09-18T12:10:57.929Z,10.94
2022-09-18T12:14:09.230Z,11.09
2022-09-18T12:17:21.531Z,11.00
2022-09-18T12:20:30.117Z,10.99
2022-09-18T12:23:33.185Z,10.93
2022-09-18T12:26:49.467Z,10.85
2022-09-18T12:30:07.108Z,10.79
2022-09-18T12:33:37.215Z,10.72
2022-09-18T12:36:51.196Z,10.61
2022-09-18T12:40:11.904Z,10.65
2022-09-18T12:43:45.316Z,10.72
2022-09-18T12:47:00.755Z,10.73
2022-09-18T12:50:20.153Z,10.77
2022-09-18T12:53:33.996Z,10.79
2022-09-18T12:56:50.786Z,10.84
2022-09-18T12:59:58.929Z,10.96
2022-09-18T13:03:09.566Z,10.93
2022-09-18T13:06:19.235Z,10.99
2022-09-18T13:09:27.990Z,10.92
2022-09-18T13:12:36.553Z,10.98
2022-09-18T13:15:44.428Z,10.92
2022-09-18T13:18:53.544Z,10.91
2022-09-18T13:22:00.289Z,10.88
2022-09-18T13:25:06.146Z,10.73
2022-09-18T13:28:16.313Z,10.65
2022-09-18T13:31:28.852Z,10.68
2022-09-18T13:34:31.754Z,10.68
2022-09-18T13:37:35.944Z,10.62
2022-09-18T13:40:40.396Z,10.54
2022-09-18T13:43:45.977Z,10.43
2022-09-18T13:46:50.505Z,10.36
2022-09-18T13:49:56.821Z,10.34
2022-09-18T13:53:02.231Z,10.30
2022-09-18T13:56:06.043Z,10.32
2022-09-18T13:59:21.163Z,10.26
2022-09-18T14:02:36.094Z,10.26
2022-09-18T14:05:39.910Z,10.23
2022-09-18T14:08:44.108Z,10.15
2022-09-18T14:11:47.289Z,10.11
2022-09-18T14:15:01.985Z,10.08
2022-09-18T14:18:08.226Z,9.97
2022-09-18T14:21:25.127Z,9.96
2022-09-18T14:24:41.697Z,9.83
2022-09-18T14:27:53.557Z,9.94
2022-09-18T14:31:13.975Z,9.91
2022-09-18T14:34:23.269Z,9.98
2022-09-18T14:37:29.844Z,9.90
2022-09-18T14:40:34.356Z,9.87
2022-09-18T14:43:39.967Z,9.91
2022-09-18T14:46:53.562Z,9.85
2022-09-18T14:49:56.578Z,9.73
2022-09-18T14:53:01.374Z,9.65
2022-09-18T14:56:08.918Z,9.48
2022-09-18T14:59:17.571Z,9.11
2022-09-18T15:02:27.698Z,9.04
2022-09-18T15:05:32.909Z,8.79
2022-09-18T15:08:37.340Z,8.69
2022-09-18T15:12:01.253Z,8.71
2022-09-18T15:15:26.473Z,8.70
2022-09-18T15:18:30.803Z,8.72
2022-09-18T15:21:34.928Z,8.79
2022-09-18T15:24:37.677Z,8.84
2022-09-18T15:27:42.450Z,8.81
2022-09-18T15:30:46.083Z,8.82
2022-09-18T15:33:57.392Z,8.82
2022-09-18T15:37:02.560Z,8.75
2022-09-18T15:40:08.017Z,8.66
2022-09-18T15:43:43.728Z,8.67
2022-09-18T15:46:46.499Z,8.71
2022-09-18T15:49:49.553Z,8.61
2022-09-18T15:53:03.205Z,8.55
2022-09-18T15:56:09.921Z,8.50
2022-09-18T15:59:25.250Z,8.41
2022-09-18T16:02:35.249Z,8.49
2022-09-18T16:05:39.421Z,8.53
2022-09-18T16:08:42.349Z,8.44
2022-09-18T16:11:47.379Z,8.34
2022-09-18T16:15:01.383Z,8.26
2022-09-18T16:18:24.857Z,8.21
2022-09-18T16:21:30.379Z,8.28
2022-09-18T16:24:33.403Z,8.12
2022-09-18T16:27:36.356Z,8.16
2022-09-18T16:30:40.592Z,7.98
2022-09-18T16:33:55.356Z,7.98
2022-09-18T16:36:58.410Z,8.05
2022-09-18T16:40:01.801Z,7.99
2022-09-18T16:43:04.679Z,8.04
2022-09-18T16:46:09.309Z,7.99
2022-09-18T16:49:14.267Z,7.97
2022-09-18T16:52:17.064Z,7.97
2022-09-18T16:55:20.143Z,8.00
2022-09-18T16:58:24.154Z,7.96
2022-09-18T17:01:39.622Z,8.03
2022-09-18T17:04:53.425Z,8.04
2022-09-18T17:07:56.135Z,7.99
2022-09-18T17:10:59.409Z,7.99
2022-09-18T17:14:02.877Z,8.03
2022-09-18T17:17:07.098Z,7.99
2022-09-18T17:20:10.473Z,7.94
2022-09-18T17:23:13.426Z,7.88
2022-09-18T17:26:16.183Z,7.94
2022-09-18T17:29:19.233Z,7.93
2022-09-18T17:32:23.365Z,7.98
2022-09-18T17:35:26.729Z,7.98
2022-09-18T17:38:29.613Z,8.00
2022-09-18T17:41:33.671Z,7.93
2022-09-18T17:44:37.328Z,8.02
2022-09-18T17:47:41.596Z,8.06
2022-09-18T17:50:44.851Z,8.02
2022-09-18T17:53:49.590Z,8.03
2022-09-18T17:56:52.434Z,7.88
2022-09-18T17:59:55.368Z,7.91
2022-09-18T18:02:59.542Z,7.91
2022-09-18T18:06:03.487Z,7.93
2022-09-18T18:09:07.398Z,8.02
2022-09-18T18:12:10.364Z,7.98
2022-09-18T18:15:13.410Z,7.91
2022-09-18T18:18:19.121Z,7.99
2022-09-18T18:21:22.043Z,8.00
2022-09-18T18:24:25.102Z,7.90
2022-09-18T18:27:28.193Z,7.90
2022-09-18T18:30:31.317Z,7.91
2022-09-18T18:33:36.904Z,7.92
2022-09-18T18:36:41.582Z,7.83
2022-09-18T18:39:44.480Z,7.77
2022-09-18T18:42:47.261Z,7.67
2022-09-18T18:45:53.648Z,7.77
2022-09-18T18:49:01.847Z,7.68
2022-09-18T18:52:05.180Z,7.62
2022-09-18T18:55:08.304Z,7.66
2022-09-18T18:58:11.778Z,7.69
2022-09-18T19:01:16.512Z,7.70
2022-09-18T19:04:20.756Z,7.71
2022-09-18T19:07:23.718Z,7.72
2022-09-18T19:10:27.400Z,7.72
2022-09-18T19:13:30.595Z,7.68
2022-09-18T19:16:33.521Z,7.72
2022-09-18T19:19:37.790Z,7.61
2022-09-18T19:22:40.486Z,7.65
2022-09-18T19:25:44.114Z,7.64
2022-09-18T19:28:50.028Z,7.68
2022-09-18T19:31:52.882Z,7.72
2022-09-18T19:34:57.336Z,7.69
2022-09-18T19:38:01.276Z,7.70
2022-09-18T19:41:07.786Z,7.73
2022-09-18T19:44:15.739Z,7.77
2022-09-18T19:47:22.196Z,7.76
2022-09-18T19:50:29.429Z,7.71
2022-09-18T19:53:35.617Z,7.72
2022-09-18T19:56:43.174Z,7.69
2022-09-18T19:59:47.181Z,7.72
2022-09-18T20:02:50.389Z,7.67
2022-09-18T20:06:00.182Z,7.63
2022-09-18T20:09:02.928Z,7.73
2022-09-18T20:12:05.902Z,7.70
2022-09-18T20:15:10.519Z,7.75
2022-09-18T20:18:13.461Z,7.73
2022-09-18T20:21:20.180Z,7.72
2022-09-18T20:24:23.254Z,7.78
2022-09-18T20:27:26.223Z,7.70
2022-09-18T20:30:29.034Z,7.80
2022-09-18T20:33:31.829Z,7.71
2022-09-18T20:36:36.002Z,7.72
2022-09-18T20:39:38.878Z,7.77
2022-09-18T20:42:41.766Z,7.80
2022-09-18T20:45:44.699Z,7.78
2022-09-18T20:48:52.951Z,7.79
2022-09-18T20:51:57.486Z,7.76
2022-09-18T20:55:00.505Z,7.68
2022-09-18T20:58:04.759Z,7.67
2022-09-18T21:01:11.046Z,7.65
2022-09-18T21:04:19.271Z,7.66
2022-09-18T21:07:25.666Z,7.65
2022-09-18T21:10:30.436Z,7.68
2022-09-18T21:13:33.447Z,7.60
2022-09-18T21:16:39.217Z,7.64
2022-09-18T21:19:42.067Z,7.63
2022-09-18T21:23:04.825Z,7.63
2022-09-18T21:26:15.531Z,7.59
2022-09-18T21:29:22.630Z,7.63
2022-09-18T21:32:25.435Z,7.59
2022-09-18T21:35:28.244Z,7.53
2022-09-18T21:38:32.792Z,7.59
2022-09-18T21:41:38.801Z,7.59
2022-09-18T21:44:41.649Z,7.55
2022-09-18T21:47:47.277Z,7.53
2022-09-18T21:50:50.037Z,7.52
2022-09-18T21:53:54.129Z,7.47
2022-09-18T21:56:56.883Z,7.41
2022-09-18T21:59:59.695Z,7.37
2022-09-18T22:03:02.688Z,7.32
2022-09-18T22:06:05.847Z,7.24
2022-09-18T22:09:11.779Z,7.18
2022-09-18T22:12:15.085Z,7.13
2022-09-18T22:15:18.138Z,7.05
2022-09-18T22:18:20.916Z,7.05
2022-09-18T22:21:26.384Z,6.97
2022-09-18T22:24:30.889Z,6.94
2022-09-18T22:27:33.728Z,6.96
2022-09-18T22:30:37.757Z,6.96
2022-09-18T22:33:40.573Z,6.99
2022-09-18T22:36:43.402Z,7.05
2022-09-18T22:39:47.670Z,6.97
2022-09-18T22:42:50.444Z,6.95
2022-09-18T22:45:53.232Z,6.93
2022-09-18T22:48:56.075Z,6.94
2022-09-18T22:51:58.836Z,6.99
2022-09-18T22:55:03.017Z,6.98
2022-09-18T22:58:06.009Z,6.99
2022-09-18T23:01:11.124Z,6.98
2022-09-18T23:04:14.398Z,6.97
2022-09-18T23:07:17.897Z,6.96
2022-09-18T23:10:22.163Z,6.96
2022-09-18T23:13:24.942Z,7.01
2022-09-18T23:16:29.703Z,6.97
2022-09-18T23:19:35.015Z,6.95
2022-09-18T23:22:37.948Z,7.00
2022-09-18T23:25:42.038Z,6.98
2022-09-18T23:28:46.135Z,6.98
2022-09-18T23:31:53.008Z,7.00
2022-09-18T23:34:55.942Z,6.98
2022-09-18T23:37:58.758Z,6.99
2022-09-18T23:41:03.623Z,6.96
2022-09-18T23:44:09.522Z,7.00
2022-09-18T23:47:12.402Z,7.01
2022-09-18T23:50:15.442Z,7.00
2022-09-18T23:53:18.918Z,6.95
2022-09-18T23:56:24.101Z,6.95
2022-09-18T23:59:27.387Z,6.98
